Time,TemperatureF,DewpointF,PressureIn,WindDirection,WindDirectionDegrees,WindSpeedMPH,WindSpeedGustMPH,Humidity,HourlyPrecipIn,Conditions,Clouds,dailyrainin,SoftwareType,DateUTC
2013-08-10 00:02:00,73.0,71.5,30.01,NNE,17,4.0,6.0,95,0.00,,,0.00,Wunderground v.1.15,2013-08-10 05:02:00,
2013-08-10 00:08:00,73.0,71.5,30.02,NNE,15,4.0,6.0,95,0.00,,,0.00,Wunderground v.1.15,2013-08-10 05:08:00,
2013-08-10 00:14:00,73.1,71.6,30.02,NNE,12,5.0,5.0,95,0.00,,,0.00,Wunderground v.1.15,2013-08-10 05:14:00,
2013-08-10 00:20:00,73.0,71.2,30.02,NNE,12,3.0,5.0,94,0.00,,,0.00,Wunderground v.1.15,2013-08-10 05:20:00,
2013-08-10 00:26:00,73.0,71.2,30.02,North,11,4.0,5.0,94,0.00,,,0.00,Wunderground v.1.15,2013-08-10 05:26:00,
2013-08-10 00:32:00,73.0,71.2,30.02,North,10,4.0,4.0,94,0.00,,,0.00,Wunderground v.1.15,2013-08-10 05:32:00,
2013-08-10 00:38:00,72.9,71.1,30.02,North,11,4.0,4.0,94,0.00,,,0.00,Wunderground v.1.15,2013-08-10 05:38:00,
2013-08-10 00:43:00,72.9,71.1,30.02,NNE,20,4.0,4.0,94,0.00,,,0.00,Wunderground v.1.15,2013-08-10 05:43:00,
2013-08-10 00:49:00,72.9,71.4,30.02,NNE,17,5.0,5.0,95,0.00,,,0.00,Wunderground v.1.15,2013-08-10 05:49:00,
2013-08-10 00:55:00,72.9,71.4,30.02,NNE,17,4.0,5.0,95,0.00,,,0.00,Wunderground v.1.15,2013-08-10 05:55:00,
2013-08-10 01:00:00,73.0,71.5,30.02,NNE,15,4.0,4.0,95,0.00,,,0.00,Wunderground v.1.15,2013-08-10 06:00:00,
2013-08-10 01:05:00,73.0,71.5,30.02,NNE,16,3.0,4.0,95,0.00,,,0.00,Wunderground v.1.15,2013-08-10 06:05:00,
2013-08-10 01:11:00,73.1,71.6,30.02,NNE,18,4.0,4.0,95,0.00,,,0.00,Wunderground v.1.15,2013-08-10 06:11:00,
2013-08-10 01:17:00,73.2,71.7,30.01,NNE,13,4.0,4.0,95,0.00,,,0.00,Wunderground v.1.15,2013-08-10 06:17:00,
2013-08-10 01:23:00,73.2,71.7,30.01,North,11,4.0,5.0,95,0.00,,,0.00,Wunderground v.1.15,2013-08-10 06:23:00,
2013-08-10 01:28:00,73.2,71.7,30.01,North,2,5.0,5.0,95,0.00,,,0.00,Wunderground v.1.15,2013-08-10 06:28:00,
2013-08-10 01:34:00,73.2,71.4,30.00,North,359,4.0,5.0,94,0.00,,,0.00,Wunderground v.1.15,2013-08-10 06:34:00,
2013-08-10 01:40:00,73.1,71.3,30.01,North,4,6.0,6.0,94,0.00,,,0.00,Wunderground v.1.15,2013-08-10 06:40:00,
2013-08-10 01:46:00,73.1,71.3,30.00,North,358,5.0,6.0,94,0.00,,,0.00,Wunderground v.1.15,2013-08-10 06:46:00,
2013-08-10 01:51:00,72.9,71.1,30.01,North,358,7.0,7.0,94,0.00,,,0.00,Wunderground v.1.15,2013-08-10 06:51:00,
2013-08-10 01:57:00,72.8,71.0,30.00,North,353,5.0,7.0,94,0.00,,,0.00,Wunderground v.1.15,2013-08-10 06:57:00,
2013-08-10 02:02:00,72.7,70.9,30.01,North,355,4.0,5.0,94,0.00,,,0.00,Wunderground v.1.15,2013-08-10 07:02:00,
2013-08-10 02:07:00,72.6,70.8,30.00,North,355,5.0,5.0,94,0.00,,,0.00,Wunderground v.1.15,2013-08-10 07:07:00,
2013-08-10 02:12:00,72.6,70.8,30.00,North,354,6.0,6.0,94,0.00,,,0.00,Wunderground v.1.15,2013-08-10 07:12:00,
2013-08-10 02:17:00,72.5,70.7,30.00,North,355,6.0,7.0,94,0.00,,,0.00,Wunderground v.1.15,2013-08-10 07:17:00,
2013-08-10 02:22:00,72.4,70.6,30.00,North,354,6.0,6.0,94,0.00,,,0.00,Wunderground v.1.15,2013-08-10 07:22:00,
2013-08-10 02:27:00,72.3,70.5,30.00,North,354,6.0,7.0,94,0.00,,,0.00,Wunderground v.1.15,2013-08-10 07:27:00,
2013-08-10 02:32:00,72.2,70.4,30.01,North,355,5.0,6.0,94,0.00,,,0.00,Wunderground v.1.15,2013-08-10 07:32:00,
2013-08-10 02:37:00,72.2,70.4,30.00,North,357,5.0,6.0,94,0.00,,,0.00,Wunderground v.1.15,2013-08-10 07:37:00,
2013-08-10 02:42:00,72.1,70.3,30.01,North,355,4.0,6.0,94,0.00,,,0.00,Wunderground v.1.15,2013-08-10 07:42:00,
2013-08-10 02:47:00,72.1,70.3,30.01,North,1,3.0,6.0,94,0.00,,,0.00,Wunderground v.1.15,2013-08-10 07:47:00,
2013-08-10 02:52:00,72.0,70.2,30.01,North,7,5.0,5.0,94,0.00,,,0.00,Wunderground v.1.15,2013-08-10 07:52:00,
2013-08-10 02:57:00,72.0,70.5,30.01,North,6,5.0,6.0,95,0.00,,,0.00,Wunderground v.1.15,2013-08-10 07:57:00,
2013-08-10 03:02:00,71.9,70.4,30.01,North,359,5.0,6.0,95,0.00,,,0.00,Wunderground v.1.15,2013-08-10 08:02:00,
2013-08-10 03:07:00,71.9,70.4,30.01,North,358,6.0,6.0,95,0.00,,,0.00,Wunderground v.1.15,2013-08-10 08:07:00,
2013-08-10 03:12:00,71.9,70.4,30.01,North,357,5.0,6.0,95,0.00,,,0.00,Wunderground v.1.15,2013-08-10 08:12:00,
2013-08-10 03:17:00,72.0,70.5,30.01,North,357,4.0,6.0,95,0.00,,,0.00,Wunderground v.1.15,2013-08-10 08:17:00,
2013-08-10 03:22:00,72.0,70.5,30.01,North,355,5.0,6.0,95,0.00,,,0.00,Wunderground v.1.15,2013-08-10 08:22:00,
2013-08-10 03:27:00,72.0,70.5,30.00,North,357,6.0,6.0,95,0.00,,,0.00,Wunderground v.1.15,2013-08-10 08:27:00,
2013-08-10 03:32:00,72.0,70.5,30.01,North,3,6.0,6.0,95,0.00,,,0.00,Wunderground v.1.15,2013-08-10 08:32:00,
2013-08-10 03:37:00,72.0,70.5,30.00,North,4,4.0,6.0,95,0.00,,,0.00,Wunderground v.1.15,2013-08-10 08:37:00,
2013-08-10 03:42:00,72.1,70.6,30.01,North,1,4.0,5.0,95,0.00,,,0.00,Wunderground v.1.15,2013-08-10 08:42:00,
2013-08-10 03:47:00,72.1,70.6,30.01,North,3,2.0,5.0,95,0.00,,,0.00,Wunderground v.1.15,2013-08-10 08:47:00,
2013-08-10 03:52:00,72.1,70.6,30.01,North,11,3.0,4.0,95,0.00,,,0.00,Wunderground v.1.15,2013-08-10 08:52:00,
2013-08-10 03:57:00,72.1,70.6,30.01,North,5,5.0,6.0,95,0.00,,,0.00,Wunderground v.1.15,2013-08-10 08:57:00,
2013-08-10 04:02:00,72.1,70.6,30.01,North,360,5.0,6.0,95,0.00,,,0.00,Wunderground v.1.15,2013-08-10 09:02:00,
2013-08-10 04:07:00,72.1,70.6,30.00,North,355,5.0,6.0,95,0.00,,,0.00,Wunderground v.1.15,2013-08-10 09:07:00,
2013-08-10 04:12:00,72.1,70.6,30.01,North,356,6.0,7.0,95,0.00,,,0.00,Wunderground v.1.15,2013-08-10 09:12:00,
2013-08-10 04:17:00,72.1,70.6,30.00,North,355,7.0,9.0,95,0.00,,,0.00,Wunderground v.1.15,2013-08-10 09:17:00,
2013-08-10 04:22:00,72.1,70.6,30.00,North,355,9.0,10.0,95,0.00,,,0.00,Wunderground v.1.15,2013-08-10 09:22:00,
2013-08-10 04:27:00,72.2,70.7,30.00,NNW,336,9.0,11.0,95,0.00,,,0.00,Wunderground v.1.15,2013-08-10 09:27:00,
2013-08-10 04:32:00,72.2,70.7,30.01,NNW,336,9.0,10.0,95,0.00,,,0.00,Wunderground v.1.15,2013-08-10 09:32:00,
2013-08-10 04:37:00,72.2,70.7,30.00,North,355,5.0,10.0,95,0.00,,,0.00,Wunderground v.1.15,2013-08-10 09:37:00,
2013-08-10 04:42:00,72.1,70.6,30.01,North,355,8.0,10.0,95,0.00,,,0.00,Wunderground v.1.15,2013-08-10 09:42:00,
2013-08-10 04:47:00,72.1,70.6,30.00,North,353,8.0,10.0,95,0.00,,,0.00,Wunderground v.1.15,2013-08-10 09:47:00,
2013-08-10 04:52:00,72.1,70.6,30.01,North,350,6.0,9.0,95,0.00,,,0.00,Wunderground v.1.15,2013-08-10 09:52:00,
2013-08-10 04:57:00,72.1,70.6,30.01,North,359,8.0,10.0,95,0.00,,,0.00,Wunderground v.1.15,2013-08-10 09:57:00,
2013-08-10 04:58:00,72.1,70.6,30.01,North,357,6.0,10.0,95,0.00,,,0.00,Wunderground v.1.15,2013-08-10 09:58:00,
2013-08-10 05:03:00,72.2,70.7,30.01,North,1,7.0,9.0,95,0.00,,,0.00,Wunderground v.1.15,2013-08-10 10:03:00,
2013-08-10 05:08:00,72.2,70.7,30.02,North,355,6.0,9.0,95,0.00,,,0.00,Wunderground v.1.15,2013-08-10 10:08:00,
2013-08-10 05:13:00,72.3,70.8,30.03,NW,318,5.0,7.0,95,0.00,,,0.00,Wunderground v.1.15,2013-08-10 10:13:00,
2013-08-10 05:18:00,72.3,70.8,30.04,WNW,296,9.0,10.0,95,0.00,,,0.00,Wunderground v.1.15,2013-08-10 10:18:00,
2013-08-10 05:23:00,72.4,70.9,30.03,WNW,298,6.0,9.0,95,0.00,,,0.00,Wunderground v.1.15,2013-08-10 10:23:00,
2013-08-10 05:28:00,72.4,70.9,30.04,WNW,288,6.0,9.0,95,0.00,,,0.00,Wunderground v.1.15,2013-08-10 10:28:00,
2013-08-10 05:33:00,72.4,70.9,30.04,NNW,330,6.0,7.0,95,0.00,,,0.00,Wunderground v.1.15,2013-08-10 10:33:00,
2013-08-10 05:38:00,72.4,70.9,30.04,North,357,5.0,8.0,95,0.00,,,0.01,Wunderground v.1.15,2013-08-10 10:38:00,
2013-08-10 05:43:00,72.4,70.9,30.03,North,360,9.0,11.0,95,0.00,,,0.01,Wunderground v.1.15,2013-08-10 10:43:00,
2013-08-10 05:48:00,72.3,70.8,30.04,North,8,8.0,11.0,95,0.00,,,0.01,Wunderground v.1.15,2013-08-10 10:48:00,
2013-08-10 05:53:00,72.3,70.8,30.03,North,6,10.0,12.0,95,0.00,,,0.01,Wunderground v.1.15,2013-08-10 10:53:00,
2013-08-10 05:58:00,72.2,70.7,30.04,North,3,11.0,12.0,95,0.00,,,0.01,Wunderground v.1.15,2013-08-10 10:58:00,
2013-08-10 06:03:00,72.2,70.7,30.04,North,5,9.0,11.0,95,0.00,,,0.01,Wunderground v.1.15,2013-08-10 11:03:00,
2013-08-10 06:08:00,72.2,70.7,30.04,North,352,9.0,12.0,95,0.00,,,0.01,Wunderground v.1.15,2013-08-10 11:08:00,
2013-08-10 06:13:00,72.2,70.7,30.04,North,358,6.0,10.0,95,0.00,,,0.01,Wunderground v.1.15,2013-08-10 11:13:00,
2013-08-10 06:18:00,72.2,70.7,30.04,North,352,9.0,10.0,95,0.00,,,0.01,Wunderground v.1.15,2013-08-10 11:18:00,
2013-08-10 06:23:00,72.2,70.7,30.04,North,356,7.0,10.0,95,0.00,,,0.01,Wunderground v.1.15,2013-08-10 11:23:00,
2013-08-10 06:28:00,72.3,70.8,30.04,NNW,340,7.0,10.0,95,0.00,,,0.01,Wunderground v.1.15,2013-08-10 11:28:00,
2013-08-10 06:33:00,72.3,70.8,30.05,North,350,7.0,9.0,95,0.00,,,0.01,Wunderground v.1.15,2013-08-10 11:33:00,
2013-08-10 06:38:00,72.2,70.7,30.04,North,1,7.0,10.0,95,0.00,,,0.01,Wunderground v.1.15,2013-08-10 11:38:00,
2013-08-10 06:43:00,72.2,70.7,30.04,North,11,6.0,9.0,95,0.00,,,0.01,Wunderground v.1.15,2013-08-10 11:43:00,
2013-08-10 06:48:00,72.2,70.7,30.04,NNE,17,6.0,9.0,95,0.00,,,0.01,Wunderground v.1.15,2013-08-10 11:48:00,
2013-08-10 06:53:00,72.2,70.7,30.04,NNE,23,5.0,7.0,95,0.00,,,0.01,Wunderground v.1.15,2013-08-10 11:53:00,
2013-08-10 06:58:00,72.2,71.0,30.04,North,7,4.0,7.0,96,0.00,,,0.01,Wunderground v.1.15,2013-08-10 11:58:00,
2013-08-10 07:03:00,72.3,71.1,30.05,North,353,6.0,6.0,96,0.00,,,0.01,Wunderground v.1.15,2013-08-10 12:03:00,
2013-08-10 07:08:00,72.4,71.2,30.05,North,353,5.0,7.0,96,0.00,,,0.01,Wunderground v.1.15,2013-08-10 12:08:00,
2013-08-10 07:13:00,72.4,71.2,30.05,North,351,5.0,7.0,96,0.00,,,0.01,Wunderground v.1.15,2013-08-10 12:13:00,
2013-08-10 07:18:00,72.5,71.3,30.05,North,360,5.0,7.0,96,0.00,,,0.01,Wunderground v.1.15,2013-08-10 12:18:00,
2013-08-10 07:23:00,72.5,71.3,30.06,North,358,1.0,5.0,96,0.00,,,0.01,Wunderground v.1.15,2013-08-10 12:23:00,
2013-08-10 07:28:00,72.5,71.3,30.06,North,10,2.0,5.0,96,0.00,,,0.01,Wunderground v.1.15,2013-08-10 12:28:00,
2013-08-10 07:33:00,72.5,71.3,30.06,North,11,3.0,5.0,96,0.00,,,0.01,Wunderground v.1.15,2013-08-10 12:33:00,
2013-08-10 07:38:00,72.5,71.3,30.06,NNE,13,2.0,5.0,96,0.00,,,0.01,Wunderground v.1.15,2013-08-10 12:38:00,
2013-08-10 07:43:00,72.6,71.4,30.06,NNE,13,3.0,4.0,96,0.00,,,0.01,Wunderground v.1.15,2013-08-10 12:43:00,
2013-08-10 07:48:00,72.6,71.4,30.06,NNE,13,1.0,4.0,96,0.00,,,0.01,Wunderground v.1.15,2013-08-10 12:48:00,
2013-08-10 07:53:00,72.6,71.1,30.07,NNE,12,1.0,2.0,95,0.00,,,0.01,Wunderground v.1.15,2013-08-10 12:53:00,
2013-08-10 07:58:00,72.6,71.1,30.07,North,11,0.0,3.0,95,0.00,,,0.01,Wunderground v.1.15,2013-08-10 12:58:00,
2013-08-10 08:03:00,72.6,71.1,30.07,NNE,13,1.0,4.0,95,0.00,,,0.01,Wunderground v.1.15,2013-08-10 13:03:00,
2013-08-10 08:08:00,72.6,71.1,30.07,NE,45,6.0,7.0,95,0.00,,,0.01,Wunderground v.1.15,2013-08-10 13:08:00,
2013-08-10 08:13:00,72.7,71.2,30.07,NE,47,5.0,6.0,95,0.00,,,0.01,Wunderground v.1.15,2013-08-10 13:13:00,
2013-08-10 08:18:00,72.8,71.6,30.07,NE,46,2.0,6.0,96,0.00,,,0.01,Wunderground v.1.15,2013-08-10 13:18:00,
2013-08-10 08:23:00,72.9,71.7,30.07,NE,54,6.0,7.0,96,0.00,,,0.01,Wunderground v.1.15,2013-08-10 13:23:00,
2013-08-10 08:28:00,72.9,71.7,30.07,NE,54,5.0,7.0,96,0.00,,,0.01,Wunderground v.1.15,2013-08-10 13:28:00,
2013-08-10 08:33:00,73.0,71.8,30.07,ENE,58,7.0,7.0,96,0.00,,,0.01,Wunderground v.1.15,2013-08-10 13:33:00,
2013-08-10 08:38:00,73.1,71.9,30.07,ENE,63,6.0,7.0,96,0.00,,,0.01,Wunderground v.1.15,2013-08-10 13:38:00,
2013-08-10 08:43:00,73.2,72.0,30.07,NE,47,8.0,9.0,96,0.00,,,0.01,Wunderground v.1.15,2013-08-10 13:43:00,
2013-08-10 08:48:00,73.3,72.1,30.06,NE,38,9.0,12.0,96,0.00,,,0.01,Wunderground v.1.15,2013-08-10 13:48:00,
2013-08-10 08:53:00,73.4,71.9,30.07,NNE,33,4.0,10.0,95,0.00,,,0.01,Wunderground v.1.15,2013-08-10 13:53:00,
2013-08-10 08:58:00,73.5,72.0,30.06,NNE,22,6.0,10.0,95,0.00,,,0.01,Wunderground v.1.15,2013-08-10 13:58:00,
2013-08-10 09:03:00,73.5,72.0,30.06,North,8,8.0,10.0,95,0.00,,,0.01,Wunderground v.1.15,2013-08-10 14:03:00,
2013-08-10 09:08:00,73.5,71.7,30.06,North,5,5.0,10.0,94,0.00,,,0.01,Wunderground v.1.15,2013-08-10 14:08:00,
2013-08-10 09:13:00,73.5,71.7,30.06,NNE,13,2.0,7.0,94,0.00,,,0.01,Wunderground v.1.15,2013-08-10 14:13:00,
2013-08-10 09:18:00,73.6,71.8,30.06,NNE,13,6.0,7.0,94,0.00,,,0.01,Wunderground v.1.15,2013-08-10 14:18:00,
2013-08-10 09:23:00,73.7,71.9,30.07,NNE,20,5.0,7.0,94,0.00,,,0.01,Wunderground v.1.15,2013-08-10 14:23:00,
2013-08-10 09:28:00,73.7,71.5,30.07,NNE,21,4.0,7.0,93,0.00,,,0.01,Wunderground v.1.15,2013-08-10 14:28:00,
2013-08-10 09:33:00,73.9,72.1,30.08,NNE,20,0.0,4.0,94,0.00,,,0.01,Wunderground v.1.15,2013-08-10 14:33:00,
2013-08-10 09:38:00,74.0,71.8,30.08,NNE,19,0.0,4.0,93,0.00,,,0.01,Wunderground v.1.15,2013-08-10 14:38:00,
2013-08-10 09:43:00,73.9,71.4,30.08,NNE,21,2.0,3.0,92,0.00,,,0.01,Wunderground v.1.15,2013-08-10 14:43:00,
2013-08-10 09:48:00,74.0,71.8,30.09,NNE,20,0.0,3.0,93,0.00,,,0.01,Wunderground v.1.15,2013-08-10 14:48:00,
2013-08-10 09:53:00,74.0,71.8,30.09,NNE,27,3.0,4.0,93,0.00,,,0.01,Wunderground v.1.15,2013-08-10 14:53:00,
2013-08-10 09:58:00,74.0,71.8,30.09,SSE,161,5.0,6.0,93,0.00,,,0.01,Wunderground v.1.15,2013-08-10 14:58:00,
2013-08-10 10:03:00,74.0,72.2,30.09,SSE,161,4.0,5.0,94,0.00,,,0.01,Wunderground v.1.15,2013-08-10 15:03:00,
2013-08-10 10:08:00,74.0,72.2,30.09,SSE,159,3.0,5.0,94,0.00,,,0.01,Wunderground v.1.15,2013-08-10 15:08:00,
2013-08-10 10:13:00,74.0,72.2,30.09,SSE,163,1.0,3.0,94,0.00,,,0.01,Wunderground v.1.15,2013-08-10 15:13:00,
2013-08-10 10:18:00,74.1,72.3,30.09,SSE,160,0.0,3.0,94,0.00,,,0.01,Wunderground v.1.15,2013-08-10 15:18:00,
2013-08-10 10:23:00,74.2,72.4,30.09,SSE,159,0.0,1.0,94,0.00,,,0.01,Wunderground v.1.15,2013-08-10 15:23:00,
2013-08-10 10:28:00,74.2,72.4,30.08,SSE,163,0.0,1.0,94,0.00,,,0.02,Wunderground v.1.15,2013-08-10 15:28:00,
2013-08-10 10:33:00,74.3,72.8,30.09,SSE,159,2.0,3.0,95,0.00,,,0.02,Wunderground v.1.15,2013-08-10 15:33:00,
2013-08-10 10:38:00,74.3,72.5,30.08,East,80,0.0,3.0,94,0.00,,,0.02,Wunderground v.1.15,2013-08-10 15:38:00,
2013-08-10 10:43:00,74.0,71.8,30.09,East,81,0.0,2.0,93,0.00,,,0.02,Wunderground v.1.15,2013-08-10 15:43:00,
2013-08-10 10:48:00,73.9,71.7,30.09,East,80,1.0,2.0,93,0.00,,,0.02,Wunderground v.1.15,2013-08-10 15:48:00,
2013-08-10 10:53:00,74.0,72.2,30.09,West,279,0.0,1.0,94,0.00,,,0.02,Wunderground v.1.15,2013-08-10 15:53:00,
2013-08-10 10:59:00,74.1,72.3,30.09,East,80,0.0,1.0,94,0.00,,,0.02,Wunderground v.1.15,2013-08-10 15:59:00,
2013-08-10 11:04:00,74.2,72.4,30.09,East,82,1.0,2.0,94,0.00,,,0.02,Wunderground v.1.15,2013-08-10 16:04:00,
2013-08-10 11:09:00,74.2,72.4,30.09,East,82,1.0,2.0,94,0.00,,,0.02,Wunderground v.1.15,2013-08-10 16:09:00,
2013-08-10 11:14:00,74.4,72.9,30.09,East,82,0.0,1.0,95,0.00,,,0.02,Wunderground v.1.15,2013-08-10 16:14:00,
2013-08-10 11:19:00,74.5,73.0,30.09,East,82,1.0,1.0,95,0.00,,,0.02,Wunderground v.1.15,2013-08-10 16:19:00,
2013-08-10 11:24:00,74.5,72.7,30.09,East,82,0.0,2.0,94,0.00,,,0.02,Wunderground v.1.15,2013-08-10 16:24:00,
2013-08-10 11:29:00,74.5,72.7,30.09,East,82,1.0,2.0,94,0.00,,,0.02,Wunderground v.1.15,2013-08-10 16:29:00,
2013-08-10 11:34:00,74.5,72.7,30.08,East,82,1.0,2.0,94,0.00,,,0.02,Wunderground v.1.15,2013-08-10 16:34:00,
2013-08-10 11:39:00,74.5,72.7,30.09,ENE,78,2.0,3.0,94,0.00,,,0.02,Wunderground v.1.15,2013-08-10 16:39:00,
2013-08-10 11:44:00,74.4,72.6,30.08,North,353,0.0,3.0,94,0.00,,,0.02,Wunderground v.1.15,2013-08-10 16:44:00,
2013-08-10 11:49:00,74.4,72.6,30.08,North,353,0.0,3.0,94,0.00,,,0.02,Wunderground v.1.15,2013-08-10 16:49:00,
2013-08-10 11:54:00,74.5,72.7,30.08,North,355,1.0,2.0,94,0.00,,,0.02,Wunderground v.1.15,2013-08-10 16:54:00,
2013-08-10 11:59:00,74.6,72.1,30.08,North,353,0.0,2.0,92,0.00,,,0.02,Wunderground v.1.15,2013-08-10 16:59:00,
2013-08-10 12:04:00,74.7,72.5,30.08,North,353,1.0,1.0,93,0.00,,,0.02,Wunderground v.1.15,2013-08-10 17:04:00,
2013-08-10 12:10:00,74.8,72.3,30.08,North,352,0.0,1.0,92,0.00,,,0.02,Wunderground v.1.15,2013-08-10 17:10:00,
2013-08-10 12:15:00,75.0,72.5,30.07,North,355,1.0,1.0,92,0.00,,,0.02,Wunderground v.1.15,2013-08-10 17:15:00,
2013-08-10 12:20:00,75.2,72.7,30.07,North,352,1.0,1.0,92,0.00,,,0.02,Wunderground v.1.15,2013-08-10 17:20:00,
2013-08-10 12:25:00,75.4,72.3,30.08,North,352,0.0,1.0,90,0.00,,,0.02,Wunderground v.1.15,2013-08-10 17:25:00,
2013-08-10 12:30:00,75.7,72.9,30.08,North,352,1.0,1.0,91,0.00,,,0.02,Wunderground v.1.15,2013-08-10 17:30:00,
2013-08-10 12:35:00,76.1,73.3,30.08,North,8,1.0,3.0,91,0.00,,,0.02,Wunderground v.1.15,2013-08-10 17:35:00,
2013-08-10 12:40:00,76.5,73.0,30.07,North,360,4.0,5.0,89,0.00,,,0.02,Wunderground v.1.15,2013-08-10 17:40:00,
2013-08-10 12:45:00,76.7,72.9,30.07,North,11,3.0,5.0,88,0.00,,,0.02,Wunderground v.1.15,2013-08-10 17:45:00,
2013-08-10 12:50:00,77.1,73.6,30.07,North,356,2.0,4.0,89,0.00,,,0.02,Wunderground v.1.15,2013-08-10 17:50:00,
2013-08-10 12:55:00,77.5,73.7,30.07,NNW,333,0.0,5.0,88,0.00,,,0.02,Wunderground v.1.15,2013-08-10 17:55:00,
2013-08-10 13:00:00,77.7,73.2,30.07,North,350,3.0,3.0,86,0.00,,,0.02,Wunderground v.1.15,2013-08-10 18:00:00,
2013-08-10 13:05:00,77.8,74.0,30.07,NNW,330,4.0,5.0,88,0.00,,,0.02,Wunderground v.1.15,2013-08-10 18:05:00,
2013-08-10 13:10:00,78.0,73.8,30.06,NNW,331,3.0,4.0,87,0.00,,,0.02,Wunderground v.1.15,2013-08-10 18:10:00,
2013-08-10 13:15:00,78.2,73.3,30.06,NNW,330,4.0,5.0,85,0.00,,,0.02,Wunderground v.1.15,2013-08-10 18:15:00,
2013-08-10 13:20:00,78.4,73.9,30.06,NNW,337,5.0,6.0,86,0.00,,,0.02,Wunderground v.1.15,2013-08-10 18:20:00,
2013-08-10 13:25:00,78.9,74.0,30.06,NNW,329,3.0,6.0,85,0.00,,,0.02,Wunderground v.1.15,2013-08-10 18:25:00,
2013-08-10 13:30:00,79.4,74.1,30.06,WNW,295,2.0,3.0,84,0.00,,,0.02,Wunderground v.1.15,2013-08-10 18:30:00,
2013-08-10 13:35:00,79.7,73.7,30.06,North,8,0.0,4.0,82,0.00,,,0.02,Wunderground v.1.15,2013-08-10 18:35:00,
2013-08-10 13:40:00,79.8,72.7,30.06,North,8,1.0,2.0,79,0.00,,,0.02,Wunderground v.1.15,2013-08-10 18:40:00,
2013-08-10 13:45:00,80.1,73.0,30.06,NE,34,2.0,5.0,79,0.00,,,0.02,Wunderground v.1.15,2013-08-10 18:45:00,
2013-08-10 13:50:00,80.2,73.8,30.06,NE,35,0.0,1.0,81,0.00,,,0.02,Wunderground v.1.15,2013-08-10 18:50:00,
2013-08-10 13:55:00,80.3,73.6,30.06,NE,35,3.0,4.0,80,0.00,,,0.02,Wunderground v.1.15,2013-08-10 18:55:00,
2013-08-10 14:00:00,80.7,72.8,30.06,NE,51,5.0,6.0,77,0.00,,,0.02,Wunderground v.1.15,2013-08-10 19:00:00,
2013-08-10 14:05:00,81.1,73.2,30.06,NE,51,3.0,6.0,77,0.00,,,0.02,Wunderground v.1.15,2013-08-10 19:05:00,
2013-08-10 14:10:00,81.5,72.8,30.05,NNE,28,1.0,3.0,75,0.00,,,0.02,Wunderground v.1.15,2013-08-10 19:10:00,
2013-08-10 14:15:00,81.7,73.0,30.06,NNE,28,2.0,3.0,75,0.00,,,0.02,Wunderground v.1.15,2013-08-10 19:15:00,
2013-08-10 14:20:00,81.9,74.0,30.06,NNE,28,2.0,2.0,77,0.00,,,0.02,Wunderground v.1.15,2013-08-10 19:20:00,
2013-08-10 14:25:00,81.9,72.4,30.05,NNE,28,0.0,3.0,73,0.00,,,0.02,Wunderground v.1.15,2013-08-10 19:25:00,
2013-08-10 14:30:00,82.0,73.7,30.05,NNE,28,2.0,2.0,76,0.00,,,0.02,Wunderground v.1.15,2013-08-10 19:30:00,
2013-08-10 14:35:00,82.0,74.1,30.05,NNE,28,1.0,2.0,77,0.00,,,0.02,Wunderground v.1.15,2013-08-10 19:35:00,
2013-08-10 14:40:00,82.1,73.0,30.05,NE,40,0.0,2.0,74,0.00,,,0.02,Wunderground v.1.15,2013-08-10 19:40:00,
2013-08-10 14:45:00,82.1,74.6,30.05,NE,41,3.0,5.0,78,0.00,,,0.02,Wunderground v.1.15,2013-08-10 19:45:00,
2013-08-10 14:51:00,82.1,74.6,30.04,NE,41,4.0,4.0,78,0.00,,,0.02,Wunderground v.1.15,2013-08-10 19:51:00,
2013-08-10 14:56:00,81.9,74.0,30.05,NE,45,1.0,5.0,77,0.00,,,0.02,Wunderground v.1.15,2013-08-10 19:56:00,
2013-08-10 15:01:00,81.8,74.6,30.04,NE,45,3.0,3.0,79,0.00,,,0.02,Wunderground v.1.15,2013-08-10 20:01:00,
2013-08-10 15:06:00,81.7,74.2,30.05,NE,45,2.0,3.0,78,0.00,,,0.02,Wunderground v.1.15,2013-08-10 20:06:00,
2013-08-10 15:11:00,81.6,73.3,30.04,NE,45,1.0,2.0,76,0.00,,,0.02,Wunderground v.1.15,2013-08-10 20:11:00,
2013-08-10 15:16:00,81.4,73.9,30.04,NE,45,0.0,2.0,78,0.00,,,0.02,Wunderground v.1.15,2013-08-10 20:16:00,
2013-08-10 15:21:00,81.2,74.1,30.04,NE,45,1.0,2.0,79,0.00,,,0.02,Wunderground v.1.15,2013-08-10 20:21:00,
2013-08-10 15:26:00,81.1,74.7,30.03,NE,45,2.0,3.0,81,0.00,,,0.02,Wunderground v.1.15,2013-08-10 20:26:00,
2013-08-10 15:31:00,80.8,74.4,30.03,NNE,15,4.0,5.0,81,0.00,,,0.02,Wunderground v.1.15,2013-08-10 20:31:00,
2013-08-10 15:36:00,80.6,75.0,30.02,NNE,15,4.0,6.0,83,0.00,,,0.02,Wunderground v.1.15,2013-08-10 20:36:00,
2013-08-10 15:41:00,80.3,73.6,30.02,NNE,15,2.0,4.0,80,0.00,,,0.02,Wunderground v.1.15,2013-08-10 20:41:00,
2013-08-10 15:46:00,80.0,74.0,30.02,NNE,15,5.0,5.0,82,0.00,,,0.02,Wunderground v.1.15,2013-08-10 20:46:00,
2013-08-10 15:51:00,79.8,74.2,30.02,NNE,13,4.0,4.0,83,0.00,,,0.02,Wunderground v.1.15,2013-08-10 20:51:00,
2013-08-10 15:56:00,79.6,73.3,30.02,NNE,13,1.0,4.0,81,0.00,,,0.02,Wunderground v.1.15,2013-08-10 20:56:00,
2013-08-10 16:01:00,79.6,73.6,30.02,NNE,15,4.0,4.0,82,0.00,,,0.02,Wunderground v.1.15,2013-08-10 21:01:00,
2013-08-10 16:06:00,79.7,73.7,30.01,North,5,4.0,5.0,82,0.00,,,0.02,Wunderground v.1.15,2013-08-10 21:06:00,
2013-08-10 16:11:00,80.0,73.3,30.01,NNW,346,3.0,6.0,80,0.00,,,0.02,Wunderground v.1.15,2013-08-10 21:11:00,
2013-08-10 16:16:00,80.3,73.9,30.02,NW,323,3.0,6.0,81,0.00,,,0.02,Wunderground v.1.15,2013-08-10 21:16:00,
2013-08-10 16:21:00,80.6,74.2,30.02,North,359,6.0,6.0,81,0.00,,,0.02,Wunderground v.1.15,2013-08-10 21:21:00,
2013-08-10 16:26:00,80.7,73.2,30.02,North,355,6.0,7.0,78,0.00,,,0.02,Wunderground v.1.15,2013-08-10 21:26:00,
2013-08-10 16:31:00,80.5,73.0,30.02,North,9,5.0,6.0,78,0.00,,,0.02,Wunderground v.1.15,2013-08-10 21:31:00,
2013-08-10 16:36:00,80.5,73.4,30.02,NNW,347,7.0,7.0,79,0.00,,,0.02,Wunderground v.1.15,2013-08-10 21:36:00,
2013-08-10 16:41:00,80.6,73.9,30.02,North,3,4.0,5.0,80,0.00,,,0.02,Wunderground v.1.15,2013-08-10 21:41:00,
2013-08-10 16:46:00,80.5,73.4,30.02,North,7,6.0,9.0,79,0.00,,,0.02,Wunderground v.1.15,2013-08-10 21:46:00,
2013-08-10 16:51:00,80.2,73.8,30.02,North,356,7.0,9.0,81,0.00,,,0.02,Wunderground v.1.15,2013-08-10 21:51:00,
2013-08-10 16:56:00,80.1,73.7,30.02,North,360,5.0,9.0,81,0.00,,,0.02,Wunderground v.1.15,2013-08-10 21:56:00,
2013-08-10 17:01:00,80.1,73.4,30.02,NNW,343,9.0,9.0,80,0.00,,,0.02,Wunderground v.1.15,2013-08-10 22:01:00,
2013-08-10 17:06:00,80.2,73.8,30.01,North,359,6.0,10.0,81,0.00,,,0.02,Wunderground v.1.15,2013-08-10 22:06:00,
2013-08-10 17:11:00,80.2,72.7,30.02,North,8,5.0,7.0,78,0.00,,,0.02,Wunderground v.1.15,2013-08-10 22:11:00,
2013-08-10 17:16:00,80.0,73.3,30.02,NNE,19,5.0,7.0,80,0.00,,,0.02,Wunderground v.1.15,2013-08-10 22:16:00,
2013-08-10 17:21:00,79.9,72.8,30.02,North,7,6.0,6.0,79,0.00,,,0.02,Wunderground v.1.15,2013-08-10 22:21:00,
2013-08-10 17:26:00,79.7,71.8,30.02,North,353,3.0,7.0,77,0.00,,,0.02,Wunderground v.1.15,2013-08-10 22:26:00,
2013-08-10 17:31:00,79.7,73.0,30.03,North,6,4.0,5.0,80,0.00,,,0.02,Wunderground v.1.15,2013-08-10 22:31:00,
2013-08-10 17:36:00,79.8,72.7,30.03,North,4,3.0,6.0,79,0.00,,,0.02,Wunderground v.1.15,2013-08-10 22:36:00,
2013-08-10 17:41:00,79.8,71.9,30.03,North,8,5.0,5.0,77,0.00,,,0.02,Wunderground v.1.15,2013-08-10 22:41:00,
2013-08-10 17:46:00,79.8,72.3,30.03,North,8,5.0,5.0,78,0.00,,,0.02,Wunderground v.1.15,2013-08-10 22:46:00,
2013-08-10 17:51:00,79.9,72.8,30.02,NNE,16,3.0,4.0,79,0.00,,,0.02,Wunderground v.1.15,2013-08-10 22:51:00,
2013-08-10 17:56:00,79.9,72.0,30.03,NNE,14,1.0,4.0,77,0.00,,,0.02,Wunderground v.1.15,2013-08-10 22:56:00,
2013-08-10 18:01:00,80.0,72.9,30.03,NNE,16,3.0,3.0,79,0.00,,,0.02,Wunderground v.1.15,2013-08-10 23:01:00,
2013-08-10 18:06:00,80.1,74.1,30.04,NNE,15,4.0,4.0,82,0.00,,,0.02,Wunderground v.1.15,2013-08-10 23:06:00,
2013-08-10 18:11:00,80.1,73.7,30.04,NNE,15,3.0,3.0,81,0.00,,,0.02,Wunderground v.1.15,2013-08-10 23:11:00,
2013-08-10 18:16:00,80.2,73.5,30.04,NNE,17,4.0,5.0,80,0.00,,,0.02,Wunderground v.1.15,2013-08-10 23:16:00,
2013-08-10 18:21:00,80.2,73.5,30.04,NNE,15,3.0,3.0,80,0.00,,,0.02,Wunderground v.1.15,2013-08-10 23:21:00,
2013-08-10 18:26:00,80.2,74.6,30.04,NNE,17,3.0,3.0,83,0.00,,,0.02,Wunderground v.1.15,2013-08-10 23:26:00,
2013-08-10 18:31:00,80.1,74.5,30.03,NNE,15,3.0,4.0,83,0.00,,,0.02,Wunderground v.1.15,2013-08-10 23:31:00,
2013-08-10 18:36:00,80.0,74.7,30.03,NNE,14,3.0,4.0,84,0.00,,,0.02,Wunderground v.1.15,2013-08-10 23:36:00,
2013-08-10 18:42:00,79.9,74.6,30.03,NNE,14,2.0,4.0,84,0.00,,,0.02,Wunderground v.1.15,2013-08-10 23:42:00,
2013-08-10 18:47:00,79.8,74.2,30.04,NNE,15,3.0,4.0,83,0.00,,,0.02,Wunderground v.1.15,2013-08-10 23:47:00,
2013-08-10 18:52:00,79.8,74.5,30.03,NNE,15,3.0,4.0,84,0.00,,,0.02,Wunderground v.1.15,2013-08-10 23:52:00,
2013-08-10 18:57:00,79.6,74.3,30.03,NNE,15,3.0,4.0,84,0.00,,,0.02,Wunderground v.1.15,2013-08-10 23:57:00,
2013-08-10 19:02:00,79.4,74.1,30.02,NNE,19,4.0,5.0,84,0.00,,,0.02,Wunderground v.1.15,2013-08-11 00:02:00,
2013-08-10 19:07:00,79.1,73.5,30.03,NNE,18,3.0,5.0,83,0.00,,,0.02,Wunderground v.1.15,2013-08-11 00:07:00,
2013-08-10 19:12:00,78.9,74.0,30.03,NNE,18,5.0,5.0,85,0.00,,,0.02,Wunderground v.1.15,2013-08-11 00:12:00,
2013-08-10 19:17:00,78.8,73.9,30.03,NNE,18,4.0,5.0,85,0.00,,,0.02,Wunderground v.1.15,2013-08-11 00:17:00,
2013-08-10 19:22:00,78.7,73.8,30.03,NNE,17,2.0,4.0,85,0.00,,,0.02,Wunderground v.1.15,2013-08-11 00:22:00,
2013-08-10 19:26:00,78.5,73.6,30.04,NNE,18,3.0,4.0,85,0.00,,,0.02,Wunderground v.1.15,2013-08-11 00:26:00,
2013-08-10 19:31:00,78.2,73.3,30.03,NNE,18,3.0,3.0,85,0.00,,,0.02,Wunderground v.1.15,2013-08-11 00:31:00,
2013-08-10 19:36:00,77.9,73.4,30.04,NNE,20,3.0,4.0,86,0.00,,,0.02,Wunderground v.1.15,2013-08-11 00:36:00,
2013-08-10 19:41:00,77.6,73.4,30.04,NNE,20,4.0,4.0,87,0.00,,,0.02,Wunderground v.1.15,2013-08-11 00:41:00,
2013-08-10 19:46:00,77.5,73.3,30.03,NNE,19,5.0,5.0,87,0.00,,,0.02,Wunderground v.1.15,2013-08-11 00:46:00,
2013-08-10 19:51:00,77.3,73.1,30.03,NNE,17,4.0,4.0,87,0.00,,,0.02,Wunderground v.1.15,2013-08-11 00:51:00,
2013-08-10 19:56:00,77.3,73.5,30.04,NNE,18,3.0,4.0,88,0.00,,,0.02,Wunderground v.1.15,2013-08-11 00:56:00,
2013-08-10 20:02:00,77.1,72.9,30.04,NNE,18,3.0,5.0,87,0.00,,,0.02,Wunderground v.1.15,2013-08-11 01:02:00,
2013-08-10 20:07:00,76.9,73.1,30.04,NNE,17,3.0,5.0,88,0.00,,,0.02,Wunderground v.1.15,2013-08-11 01:07:00,
2013-08-10 20:12:00,76.8,73.0,30.04,NNE,17,4.0,4.0,88,0.00,,,0.02,Wunderground v.1.15,2013-08-11 01:12:00,
2013-08-10 20:17:00,76.6,73.1,30.04,NNE,18,4.0,4.0,89,0.00,,,0.02,Wunderground v.1.15,2013-08-11 01:17:00,
2013-08-10 20:22:00,76.4,72.9,30.05,NNE,20,5.0,5.0,89,0.00,,,0.02,Wunderground v.1.15,2013-08-11 01:22:00,
2013-08-10 20:27:00,76.2,73.1,30.04,NNE,19,4.0,5.0,90,0.00,,,0.02,Wunderground v.1.15,2013-08-11 01:27:00,
2013-08-10 20:32:00,76.2,73.1,30.05,NNE,20,4.0,5.0,90,0.00,,,0.02,Wunderground v.1.15,2013-08-11 01:32:00,
2013-08-10 20:37:00,76.0,72.9,30.04,NNE,19,4.0,5.0,90,0.00,,,0.02,Wunderground v.1.15,2013-08-11 01:37:00,
2013-08-10 20:42:00,75.8,72.7,30.05,NNE,17,5.0,5.0,90,0.00,,,0.02,Wunderground v.1.15,2013-08-11 01:42:00,
2013-08-10 20:47:00,75.7,72.6,30.05,NNE,20,4.0,5.0,90,0.00,,,0.02,Wunderground v.1.15,2013-08-11 01:47:00,
2013-08-10 20:52:00,75.5,72.4,30.05,NNE,20,5.0,6.0,90,0.00,,,0.02,Wunderground v.1.15,2013-08-11 01:52:00,
2013-08-10 20:57:00,75.3,72.2,30.04,NNE,20,5.0,6.0,90,0.00,,,0.02,Wunderground v.1.15,2013-08-11 01:57:00,
2013-08-10 21:02:00,75.1,72.0,30.05,NNE,22,4.0,5.0,90,0.00,,,0.02,Wunderground v.1.15,2013-08-11 02:02:00,
2013-08-10 21:07:00,75.0,72.2,30.05,NNE,22,3.0,5.0,91,0.00,,,0.02,Wunderground v.1.15,2013-08-11 02:07:00,
2013-08-10 21:12:00,74.9,72.1,30.05,NNE,22,1.0,4.0,91,0.00,,,0.02,Wunderground v.1.15,2013-08-11 02:12:00,
2013-08-10 21:17:00,74.7,71.9,30.05,NNE,20,1.0,4.0,91,0.00,,,0.02,Wunderground v.1.15,2013-08-11 02:17:00,
2013-08-10 21:22:00,74.6,71.8,30.05,NNE,24,2.0,3.0,91,0.00,,,0.02,Wunderground v.1.15,2013-08-11 02:22:00,
2013-08-10 21:27:00,74.4,71.9,30.05,NNE,22,3.0,4.0,92,0.00,,,0.02,Wunderground v.1.15,2013-08-11 02:27:00,
2013-08-10 21:32:00,74.2,71.7,30.05,NNE,22,2.0,3.0,92,0.00,,,0.02,Wunderground v.1.15,2013-08-11 02:32:00,
2013-08-10 21:37:00,74.0,71.5,30.06,NNE,21,0.0,3.0,92,0.00,,,0.02,Wunderground v.1.15,2013-08-11 02:37:00,
2013-08-10 21:42:00,73.8,71.3,30.06,NNE,22,0.0,1.0,92,0.00,,,0.02,Wunderground v.1.15,2013-08-11 02:42:00,
2013-08-10 21:47:00,73.7,71.5,30.05,NNE,22,1.0,2.0,93,0.00,,,0.02,Wunderground v.1.15,2013-08-11 02:47:00,
2013-08-10 21:52:00,73.6,71.4,30.06,NNE,22,0.0,1.0,93,0.00,,,0.02,Wunderground v.1.15,2013-08-11 02:52:00,
2013-08-10 21:57:00,73.5,71.4,30.06,NNE,24,1.0,1.0,93,0.00,,,0.02,Wunderground v.1.15,2013-08-11 02:57:00,
2013-08-10 22:03:00,73.3,71.2,30.06,NNE,20,1.0,3.0,93,0.00,,,0.02,Wunderground v.1.15,2013-08-11 03:03:00,
2013-08-10 22:08:00,73.2,71.1,30.05,NNE,22,1.0,3.0,93,0.00,,,0.02,Wunderground v.1.15,2013-08-11 03:08:00,
2013-08-10 22:14:00,73.1,71.0,30.06,NNE,20,0.0,1.0,93,0.00,,,0.02,Wunderground v.1.15,2013-08-11 03:14:00,
2013-08-10 22:19:00,73.1,71.0,30.06,NNE,24,2.0,2.0,93,0.00,,,0.02,Wunderground v.1.15,2013-08-11 03:19:00,
2013-08-10 22:24:00,73.0,71.2,30.06,NNE,22,1.0,3.0,94,0.00,,,0.02,Wunderground v.1.15,2013-08-11 03:24:00,
2013-08-10 22:29:00,72.9,71.1,30.06,NNE,22,4.0,4.0,94,0.00,,,0.02,Wunderground v.1.15,2013-08-11 03:29:00,
2013-08-10 22:35:00,72.9,71.1,30.07,NNE,22,2.0,4.0,94,0.00,,,0.02,Wunderground v.1.15,2013-08-11 03:35:00,
2013-08-10 22:41:00,72.8,71.0,30.06,NNE,22,3.0,3.0,94,0.00,,,0.02,Wunderground v.1.15,2013-08-11 03:41:00,
2013-08-10 22:46:00,72.8,71.0,30.06,NNE,22,2.0,3.0,94,0.00,,,0.02,Wunderground v.1.15,2013-08-11 03:46:00,
2013-08-10 22:51:00,72.8,71.0,30.07,NNE,24,2.0,3.0,94,0.00,,,0.02,Wunderground v.1.15,2013-08-11 03:51:00,
2013-08-10 22:56:00,72.8,71.0,30.07,East,82,6.0,6.0,94,0.00,,,0.02,Wunderground v.1.15,2013-08-11 03:56:00,
2013-08-10 23:01:00,72.8,71.3,30.07,SE,135,6.0,6.0,95,0.00,,,0.02,Wunderground v.1.15,2013-08-11 04:01:00,
2013-08-10 23:06:00,72.9,71.4,30.08,SE,139,6.0,7.0,95,0.00,,,0.02,Wunderground v.1.15,2013-08-11 04:06:00,
2013-08-10 23:11:00,73.0,71.5,30.07,SE,142,6.0,6.0,95,0.00,,,0.02,Wunderground v.1.15,2013-08-11 04:11:00,
2013-08-10 23:16:00,73.0,71.5,30.07,SE,140,5.0,6.0,95,0.00,,,0.02,Wunderground v.1.15,2013-08-11 04:16:00,
2013-08-10 23:21:00,73.0,71.5,30.07,SSE,156,6.0,6.0,95,0.00,,,0.02,Wunderground v.1.15,2013-08-11 04:21:00,
2013-08-10 23:26:00,73.1,71.6,30.07,South,171,5.0,6.0,95,0.00,,,0.02,Wunderground v.1.15,2013-08-11 04:26:00,
2013-08-10 23:31:00,73.1,71.6,30.07,South,171,4.0,5.0,95,0.00,,,0.02,Wunderground v.1.15,2013-08-11 04:31:00,
2013-08-10 23:36:00,73.1,71.6,30.07,South,173,4.0,5.0,95,0.00,,,0.02,Wunderground v.1.15,2013-08-11 04:36:00,
2013-08-10 23:41:00,73.1,71.6,30.07,West,279,4.0,4.0,95,0.00,,,0.02,Wunderground v.1.15,2013-08-11 04:41:00,
2013-08-10 23:46:00,73.1,71.6,30.07,South,175,3.0,4.0,95,0.00,,,0.02,Wunderground v.1.15,2013-08-11 04:46:00,
2013-08-10 23:51:00,73.1,71.6,30.07,South,172,3.0,4.0,95,0.00,,,0.02,Wunderground v.1.15,2013-08-11 04:51:00,
2013-08-10 23:56:00,73.1,71.6,30.07,South,171,2.0,4.0,95,0.00,,,0.02,Wunderground v.1.15,2013-08-11 04:56:00,